createdAt,value
2019-01-04T00:01:26.308Z,67.97
2019-01-04T00:03:55.795Z,68.23
2019-01-04T00:06:25.297Z,68.54
2019-01-04T00:08:54.938Z,68.37
2019-01-04T00:11:24.490Z,69.09
2019-01-04T00:13:54.095Z,69.18
2019-01-04T00:16:23.607Z,69.43
2019-01-04T00:18:53.174Z,68.86
2019-01-04T00:21:22.668Z,69.36
2019-01-04T00:23:52.200Z,69.14
2019-01-04T00:26:21.676Z,69.10
2019-01-04T00:28:51.190Z,69.45
2019-01-04T00:31:20.833Z,69.37
2019-01-04T00:33:50.342Z,69.63
2019-01-04T00:36:19.870Z,69.97
2019-01-04T00:38:49.383Z,69.48
2019-01-04T00:41:18.869Z,69.79
2019-01-04T00:43:48.395Z,69.81
2019-01-04T00:46:17.928Z,70.34
2019-01-04T00:48:47.429Z,70.17
2019-01-04T00:51:16.933Z,70.23
2019-01-04T00:53:46.650Z,70.88
2019-01-04T00:56:35.148Z,71.12
2019-01-04T00:59:41.021Z,71.51
2019-01-04T01:02:41.335Z,72.17
2019-01-04T01:05:42.540Z,72.54
2019-01-04T01:08:40.359Z,72.98
2019-01-04T01:11:23.375Z,73.37
2019-01-04T01:14:14.163Z,73.40
2019-01-04T01:17:16.255Z,73.20
2019-01-04T01:20:05.593Z,73.63
2019-01-04T01:23:24.897Z,74.02
2019-01-04T01:26:24.249Z,73.80
2019-01-04T01:29:30.824Z,74.33
2019-01-04T01:32:34.833Z,73.35
2019-01-04T01:35:38.920Z,73.92
2019-01-04T01:38:31.027Z,73.87
2019-01-04T01:41:36.809Z,73.36
2019-01-04T01:44:16.468Z,73.44
2019-01-04T01:46:59.084Z,74.07
2019-01-04T01:49:57.454Z,74.60
2019-01-04T01:52:37.136Z,74.83
2019-01-04T01:55:07.254Z,74.43
2019-01-04T01:57:36.863Z,73.71
2019-01-04T02:00:07.179Z,73.57
2019-01-04T02:02:36.922Z,73.82
2019-01-04T02:05:07.194Z,73.39
2019-01-04T02:07:37.177Z,72.87
2019-01-04T02:10:08.380Z,72.87
2019-01-04T02:12:37.932Z,72.41
2019-01-04T02:15:08.377Z,73.22
2019-01-04T02:17:37.881Z,72.72
2019-01-04T02:20:08.038Z,72.78
2019-01-04T02:22:37.893Z,72.82
2019-01-04T02:25:07.379Z,73.12
2019-01-04T02:27:36.857Z,72.82
2019-01-04T02:30:08.375Z,73.90
2019-01-04T02:32:37.844Z,73.88
2019-01-04T02:35:07.391Z,73.90
2019-01-04T02:37:36.956Z,73.40
2019-01-04T02:40:06.517Z,72.72
2019-01-04T02:42:36.006Z,73.03
2019-01-04T02:45:06.415Z,72.54
2019-01-04T02:47:35.897Z,72.97
2019-01-04T02:50:06.515Z,73.28
2019-01-04T02:52:36.074Z,73.81
2019-01-04T02:55:06.242Z,73.98
2019-01-04T02:57:35.731Z,74.32
2019-01-04T03:00:09.295Z,74.04
2019-01-04T03:02:38.788Z,73.76
2019-01-04T03:05:09.142Z,73.63
2019-01-04T03:07:38.952Z,73.74
2019-01-04T03:10:08.540Z,73.65
2019-01-04T03:12:38.063Z,73.77
2019-01-04T03:15:08.467Z,73.84
2019-01-04T03:17:37.970Z,73.89
2019-01-04T03:20:07.445Z,74.52
2019-01-04T03:22:37.396Z,74.90
2019-01-04T03:25:06.868Z,75.34
2019-01-04T03:27:36.345Z,74.85
2019-01-04T03:30:06.835Z,74.45
2019-01-04T03:32:36.403Z,74.86
2019-01-04T03:35:06.349Z,75.10
2019-01-04T03:37:35.909Z,76.27
2019-01-04T03:40:09.259Z,76.70
2019-01-04T03:42:38.766Z,75.91
2019-01-04T03:45:08.843Z,76.42
2019-01-04T03:47:38.354Z,76.87
2019-01-04T03:50:08.399Z,76.73
2019-01-04T03:52:37.949Z,76.28
2019-01-04T03:55:07.442Z,76.30
2019-01-04T03:57:36.916Z,75.46
2019-01-04T04:00:10.334Z,75.25
2019-01-04T04:02:39.843Z,75.22
2019-01-04T04:05:09.467Z,75.40
2019-01-04T04:07:38.972Z,75.06
2019-01-04T04:10:08.862Z,75.48
2019-01-04T04:12:38.365Z,75.18
2019-01-04T04:15:08.005Z,74.71
2019-01-04T04:17:37.493Z,74.72
2019-01-04T04:20:08.395Z,74.93
2019-01-04T04:22:38.661Z,75.09
2019-01-04T04:25:08.191Z,75.18
2019-01-04T04:27:37.678Z,74.71
2019-01-04T04:30:09.290Z,74.82
2019-01-04T04:32:38.795Z,74.38
2019-01-04T04:35:08.365Z,74.34
2019-01-04T04:37:37.919Z,73.95
2019-01-04T04:40:07.612Z,74.46
2019-01-04T04:42:37.084Z,73.66
2019-01-04T04:45:07.172Z,73.85
2019-01-04T04:47:36.676Z,74.48
2019-01-04T04:50:06.174Z,76.35
2019-01-04T04:52:35.766Z,78.18
2019-01-04T04:55:05.401Z,75.65
2019-01-04T04:57:34.940Z,74.86
2019-01-04T05:00:06.405Z,74.28
2019-01-04T05:02:35.865Z,74.54
2019-01-04T05:05:06.352Z,75.17
2019-01-04T05:07:36.269Z,74.99
2019-01-04T05:10:06.714Z,74.85
2019-01-04T05:12:36.195Z,75.24
2019-01-04T05:15:06.068Z,75.25
2019-01-04T05:17:35.577Z,75.47
2019-01-04T05:20:05.540Z,74.77
2019-01-04T05:22:35.084Z,75.25
2019-01-04T05:25:04.577Z,76.37
2019-01-04T05:27:34.071Z,77.18
2019-01-04T05:30:04.430Z,77.55
2019-01-04T05:32:33.983Z,77.05
2019-01-04T05:35:03.576Z,76.83
2019-01-04T05:37:33.119Z,77.24
2019-01-04T05:40:02.613Z,77.48
2019-01-04T05:42:32.127Z,77.62
2019-01-04T05:45:01.683Z,78.71
2019-01-04T05:47:31.151Z,78.64
2019-01-04T05:50:00.651Z,78.99
2019-01-04T05:52:30.481Z,79.83
2019-01-04T05:55:00.009Z,79.60
2019-01-04T05:57:29.495Z,79.83
2019-01-04T05:59:59.033Z,79.87
2019-01-04T06:02:28.607Z,80.60
2019-01-04T06:04:58.106Z,80.79
2019-01-04T06:07:27.654Z,82.21
2019-01-04T06:09:57.158Z,81.84
2019-01-04T06:12:26.664Z,81.65
2019-01-04T06:14:56.556Z,81.53
2019-01-04T06:17:26.046Z,81.21
2019-01-04T06:19:55.551Z,81.08
2019-01-04T06:22:25.096Z,80.27
2019-01-04T06:24:54.603Z,80.85
2019-01-04T06:27:24.105Z,80.98
2019-01-04T06:29:53.614Z,81.10
2019-01-04T06:32:23.118Z,81.70
2019-01-04T06:34:52.576Z,82.36
2019-01-04T06:37:22.182Z,82.49
2019-01-04T06:39:51.673Z,81.63
2019-01-04T06:42:21.170Z,81.31
2019-01-04T06:44:50.691Z,81.33
2019-01-04T06:47:20.172Z,80.76
2019-01-04T06:49:49.666Z,81.32
2019-01-04T06:52:19.190Z,80.76
2019-01-04T06:55:21.929Z,80.16
2019-01-04T06:57:51.522Z,80.88
2019-01-04T07:00:21.129Z,81.49
2019-01-04T07:02:50.613Z,80.81
2019-01-04T07:05:20.122Z,80.50
2019-01-04T07:07:49.662Z,80.11
2019-01-04T07:10:19.136Z,80.04
2019-01-04T07:12:48.659Z,79.72
2019-01-04T07:15:18.137Z,80.17
2019-01-04T07:17:47.642Z,80.78
2019-01-04T07:20:17.529Z,80.58
2019-01-04T07:22:47.038Z,80.71
2019-01-04T07:25:16.537Z,80.30
2019-01-04T07:27:46.071Z,80.94
2019-01-04T07:30:15.581Z,81.09
2019-01-04T07:32:45.083Z,81.22
2019-01-04T07:35:14.708Z,80.96
2019-01-04T07:37:44.206Z,81.95
2019-01-04T07:40:14.453Z,81.46
2019-01-04T07:42:44.234Z,80.22
2019-01-04T07:45:13.739Z,79.93
2019-01-04T07:47:43.218Z,81.80
2019-01-04T07:50:12.797Z,82.22
2019-01-04T07:52:42.331Z,82.64
2019-01-04T07:55:11.867Z,82.35
2019-01-04T07:57:41.397Z,81.71
2019-01-04T08:00:12.950Z,82.25
2019-01-04T08:02:44.470Z,81.67
2019-01-04T08:05:19.437Z,81.82
2019-01-04T08:07:48.939Z,82.58
2019-01-04T08:10:18.452Z,82.94
2019-01-04T08:12:47.996Z,83.17
2019-01-04T08:15:17.493Z,83.38
2019-01-04T08:17:46.999Z,82.72
2019-01-04T08:20:16.522Z,82.63
2019-01-04T08:22:46.030Z,83.32
2019-01-04T08:25:15.611Z,83.54
2019-01-04T08:27:45.185Z,83.10
2019-01-04T08:30:14.917Z,83.16
2019-01-04T08:32:44.492Z,82.99
2019-01-04T08:35:14.116Z,82.96
2019-01-04T08:37:43.697Z,82.48
2019-01-04T08:40:13.649Z,82.26
2019-01-04T08:42:43.197Z,83.34
2019-01-04T08:45:13.178Z,83.25
2019-01-04T08:47:42.688Z,83.82
2019-01-04T08:50:12.307Z,83.50
2019-01-04T08:52:41.806Z,84.01
2019-01-04T08:55:11.301Z,84.16
2019-01-04T08:57:40.833Z,84.77
2019-01-04T09:00:14.519Z,84.17
2019-01-04T09:02:44.006Z,83.44
2019-01-04T09:05:13.956Z,84.05
2019-01-04T09:07:43.504Z,83.58
2019-01-04T09:10:13.070Z,82.63
2019-01-04T09:12:42.607Z,82.82
2019-01-04T09:15:12.182Z,82.93
2019-01-04T09:17:41.720Z,82.42
2019-01-04T09:20:11.307Z,81.70
2019-01-04T09:22:40.880Z,82.27
2019-01-04T09:25:10.666Z,82.05
2019-01-04T09:27:41.245Z,81.75
2019-01-04T09:30:12.681Z,81.11
2019-01-04T09:32:42.165Z,80.81
2019-01-04T09:35:11.710Z,81.08
2019-01-04T09:37:42.769Z,81.86
2019-01-04T09:40:12.337Z,81.92
2019-01-04T09:42:41.842Z,81.73
2019-01-04T09:45:11.405Z,81.97
2019-01-04T09:47:41.051Z,82.17
2019-01-04T09:50:10.614Z,81.60
2019-01-04T09:52:40.116Z,82.38
2019-01-04T09:55:13.926Z,81.65
2019-01-04T09:57:43.421Z,81.38
2019-01-04T10:00:13.041Z,80.47
2019-01-04T10:02:42.676Z,80.86
2019-01-04T10:05:12.620Z,81.48
2019-01-04T10:07:42.136Z,81.30
2019-01-04T10:10:12.163Z,81.80
2019-01-04T10:12:41.928Z,82.46
2019-01-04T10:15:14.964Z,81.99
2019-01-04T10:17:44.794Z,81.57
2019-01-04T10:20:14.768Z,81.32
2019-01-04T10:22:44.281Z,81.98
2019-01-04T10:25:13.814Z,80.92
2019-01-04T10:27:43.291Z,80.80
2019-01-04T10:30:25.259Z,80.15
2019-01-04T10:32:54.768Z,80.79
2019-01-04T10:35:24.256Z,81.11
2019-01-04T10:37:54.022Z,81.07
2019-01-04T10:40:23.515Z,80.92
2019-01-04T10:42:53.017Z,80.05
2019-01-04T10:45:22.647Z,80.71
2019-01-04T10:47:52.149Z,81.17
2019-01-04T10:50:21.658Z,81.37
2019-01-04T10:52:51.188Z,82.18
2019-01-04T10:55:20.693Z,82.83
2019-01-04T10:57:50.187Z,81.95
2019-01-04T11:00:19.863Z,82.21
2019-01-04T11:02:49.339Z,82.04
2019-01-04T11:05:18.834Z,82.14
2019-01-04T11:07:48.478Z,82.34
2019-01-04T11:10:18.036Z,82.40
2019-01-04T11:12:47.535Z,82.52
2019-01-04T11:15:17.063Z,82.15
2019-01-04T11:17:46.570Z,82.61
2019-01-04T11:20:44.072Z,82.68
2019-01-04T11:23:18.310Z,82.24
2019-01-04T11:26:13.547Z,82.90
2019-01-04T11:28:50.730Z,82.53
2019-01-04T11:31:42.404Z,82.82
2019-01-04T11:34:52.668Z,83.06
2019-01-04T11:37:55.670Z,82.88
2019-01-04T11:40:29.884Z,82.10
2019-01-04T11:43:23.752Z,81.68
2019-01-04T11:46:03.302Z,82.55
2019-01-04T11:48:52.631Z,81.94
2019-01-04T11:51:39.021Z,81.84
2019-01-04T11:54:10.444Z,81.97
2019-01-04T11:56:40.017Z,80.97
2019-01-04T11:59:09.499Z,80.89
2019-01-04T12:01:39.023Z,80.46
2019-01-04T12:04:08.584Z,80.05
2019-01-04T12:06:38.186Z,79.90
2019-01-04T12:09:08.423Z,79.70
2019-01-04T12:11:37.903Z,79.29
2019-01-04T12:14:07.406Z,79.88
2019-01-04T12:16:37.239Z,79.88
2019-01-04T12:19:06.760Z,79.30
2019-01-04T12:21:36.291Z,79.43
2019-01-04T12:24:05.834Z,79.79
2019-01-04T12:26:35.376Z,79.87
2019-01-04T12:29:04.863Z,80.65
2019-01-04T12:31:34.389Z,81.10
2019-01-04T12:34:03.890Z,80.77
2019-01-04T12:36:33.401Z,80.37
2019-01-04T12:39:03.006Z,80.33
2019-01-04T12:41:32.485Z,80.73
2019-01-04T12:44:01.974Z,80.80
2019-01-04T12:46:31.483Z,81.17
2019-01-04T12:49:01.028Z,81.43
2019-01-04T12:51:30.565Z,80.61
2019-01-04T12:54:00.078Z,80.85
2019-01-04T12:56:29.575Z,82.09
2019-01-04T12:58:59.081Z,81.79
2019-01-04T13:01:28.824Z,83.17
2019-01-04T13:03:58.341Z,83.97
2019-01-04T13:06:27.839Z,84.15
2019-01-04T13:08:57.368Z,84.44
2019-01-04T13:11:26.920Z,83.86
2019-01-04T13:13:56.460Z,82.89
2019-01-04T13:16:25.969Z,81.86
2019-01-04T13:18:55.641Z,81.43
2019-01-04T13:21:25.138Z,81.15
2019-01-04T13:23:55.155Z,81.96
2019-01-04T13:26:24.668Z,81.23
2019-01-04T13:28:54.182Z,81.86
2019-01-04T13:31:23.711Z,82.10
2019-01-04T13:33:53.222Z,82.53
2019-01-04T13:36:22.706Z,82.74
2019-01-04T13:38:52.256Z,81.62
2019-01-04T13:41:22.198Z,81.05
2019-01-04T13:43:51.700Z,80.65
2019-01-04T13:46:21.536Z,80.99
2019-01-04T13:48:51.054Z,80.87
2019-01-04T13:51:20.544Z,81.36
2019-01-04T13:53:50.048Z,81.95
2019-01-04T13:56:19.573Z,82.94
2019-01-04T13:58:49.046Z,82.58
2019-01-04T14:01:18.539Z,81.30
2019-01-04T14:03:48.008Z,80.95
2019-01-04T14:06:17.511Z,80.94
2019-01-04T14:08:47.346Z,80.59
2019-01-04T14:11:16.893Z,81.02
2019-01-04T14:13:46.403Z,80.60
2019-01-04T14:16:15.906Z,80.70
2019-01-04T14:18:45.431Z,80.78
2019-01-04T14:21:14.923Z,80.87
2019-01-04T14:23:44.506Z,81.22
2019-01-04T14:26:14.023Z,80.72
2019-01-04T14:28:43.516Z,80.01
2019-01-04T14:31:13.336Z,79.72
2019-01-04T14:33:42.878Z,80.30
2019-01-04T14:36:12.426Z,81.06
2019-01-04T14:38:42.042Z,81.04
2019-01-04T14:41:11.529Z,80.56
2019-01-04T14:43:41.011Z,81.04
2019-01-04T14:46:10.527Z,80.61
2019-01-04T14:48:39.994Z,79.87
2019-01-04T14:51:09.504Z,79.47
2019-01-04T14:53:39.417Z,79.35
2019-01-04T14:56:08.897Z,79.35
2019-01-04T14:58:38.399Z,79.10
2019-01-04T15:01:07.940Z,79.79
2019-01-04T15:03:37.493Z,80.74
2019-01-04T15:06:06.973Z,81.20
2019-01-04T15:08:36.493Z,80.27
2019-01-04T15:11:06.280Z,80.34
2019-01-04T15:13:35.784Z,80.04
2019-01-04T15:16:05.424Z,79.99
2019-01-04T15:18:34.929Z,79.23
2019-01-04T15:21:04.434Z,79.47
2019-01-04T15:23:33.973Z,79.69
2019-01-04T15:26:03.450Z,80.03
2019-01-04T15:28:32.952Z,80.13
2019-01-04T15:31:02.518Z,79.51
2019-01-04T15:33:31.993Z,79.30
2019-01-04T15:36:01.531Z,78.96
2019-01-04T15:38:36.241Z,78.89
2019-01-04T15:41:02.391Z,79.08
2019-01-04T15:43:31.889Z,79.00
2019-01-04T15:46:01.466Z,79.08
2019-01-04T15:48:30.969Z,79.11
2019-01-04T15:51:00.463Z,79.16
2019-01-04T15:53:29.973Z,79.18
2019-01-04T15:55:59.497Z,78.63
2019-01-04T15:58:28.974Z,79.40
2019-01-04T16:00:58.957Z,80.17
2019-01-04T16:03:28.437Z,79.89
2019-01-04T16:05:57.943Z,79.99
2019-01-04T16:08:27.450Z,79.27
2019-01-04T16:10:56.954Z,78.75
2019-01-04T16:13:26.647Z,79.47
2019-01-04T16:15:56.174Z,79.62
2019-01-04T16:18:25.668Z,79.35
2019-01-04T16:20:55.160Z,80.41
2019-01-04T16:23:24.822Z,80.17
2019-01-04T16:25:54.313Z,80.63
2019-01-04T16:28:24.191Z,79.75
2019-01-04T16:30:53.746Z,80.09
2019-01-04T16:33:23.725Z,80.08
2019-01-04T16:35:53.222Z,80.06
2019-01-04T16:38:22.829Z,80.41
2019-01-04T16:40:52.308Z,80.75
2019-01-04T16:43:21.811Z,80.99
2019-01-04T16:45:51.687Z,82.09
2019-01-04T16:48:21.165Z,81.76
2019-01-04T16:50:50.668Z,81.10
2019-01-04T16:53:20.199Z,81.32
2019-01-04T16:55:49.688Z,81.75
2019-01-04T16:58:19.213Z,81.87
2019-01-04T17:00:48.741Z,82.91
2019-01-04T17:03:20.350Z,82.26
2019-01-04T17:05:49.869Z,82.46
2019-01-04T17:08:19.434Z,82.14
2019-01-04T17:10:48.939Z,82.40
2019-01-04T17:13:18.432Z,82.22
2019-01-04T17:15:48.009Z,83.09
2019-01-04T17:18:17.516Z,83.34
2019-01-04T17:20:47.017Z,84.08
2019-01-04T17:23:16.577Z,83.97
2019-01-04T17:25:46.090Z,83.81
2019-01-04T17:28:15.574Z,84.24
2019-01-04T17:30:45.372Z,84.34
2019-01-04T17:33:15.362Z,83.85
2019-01-04T17:35:44.921Z,83.77
2019-01-04T17:38:14.481Z,84.69
2019-01-04T17:40:43.987Z,84.85
2019-01-04T17:43:13.485Z,84.36
2019-01-04T17:45:43.014Z,83.78
2019-01-04T17:48:12.528Z,83.48
2019-01-04T17:50:42.013Z,84.03
2019-01-04T17:53:11.704Z,83.61
2019-01-04T17:55:41.192Z,83.12
2019-01-04T17:58:10.692Z,83.89
2019-01-04T18:00:40.359Z,84.59
2019-01-04T18:03:09.869Z,84.60
2019-01-04T18:05:39.385Z,85.20
2019-01-04T18:08:08.921Z,84.67
2019-01-04T18:10:38.421Z,84.37
2019-01-04T18:13:07.906Z,84.17
2019-01-04T18:15:37.506Z,84.63
2019-01-04T18:18:06.974Z,84.81
2019-01-04T18:20:36.451Z,84.25
2019-01-04T18:23:05.991Z,84.48
2019-01-04T18:25:35.474Z,84.76
2019-01-04T18:28:04.943Z,83.95
2019-01-04T18:30:34.474Z,83.22
2019-01-04T18:33:04.007Z,83.59
2019-01-04T18:35:33.714Z,83.40
2019-01-04T18:38:03.604Z,83.76
2019-01-04T18:40:33.112Z,82.70
2019-01-04T18:43:02.606Z,81.86
2019-01-04T18:45:32.562Z,82.17
2019-01-04T18:48:02.066Z,83.36
2019-01-04T18:50:32.423Z,83.81
2019-01-04T18:53:01.935Z,83.21
2019-01-04T18:55:31.417Z,82.26
2019-01-04T18:58:00.931Z,82.64
2019-01-04T19:00:30.701Z,82.75
2019-01-04T19:03:00.224Z,81.87
2019-01-04T19:05:29.711Z,81.94
2019-01-04T19:07:59.235Z,82.94
2019-01-04T19:10:28.742Z,83.16
2019-01-04T19:12:58.370Z,81.88
2019-01-04T19:15:27.918Z,82.28
2019-01-04T19:17:57.596Z,82.37
2019-01-04T19:20:27.141Z,81.96
2019-01-04T19:22:57.154Z,81.37
2019-01-04T19:25:26.701Z,82.60
2019-01-04T19:27:56.221Z,83.82
2019-01-04T19:30:25.795Z,83.60
2019-01-04T19:32:55.318Z,83.38
2019-01-04T19:35:24.839Z,82.34
2019-01-04T19:37:54.406Z,82.38
2019-01-04T19:40:23.927Z,82.65
2019-01-04T19:42:53.422Z,83.21
2019-01-04T19:45:23.028Z,84.10
2019-01-04T19:47:52.620Z,85.03
2019-01-04T19:50:23.068Z,85.23
2019-01-04T19:52:52.658Z,85.21
2019-01-04T19:55:22.198Z,84.34
2019-01-04T19:57:51.689Z,84.36
2019-01-04T20:00:21.257Z,84.00
2019-01-04T20:02:50.916Z,83.21
2019-01-04T20:05:26.102Z,83.44
2019-01-04T20:08:19.231Z,84.21
2019-01-04T20:11:53.788Z,83.44
2019-01-04T20:15:01.428Z,83.77
2019-01-04T20:17:50.462Z,84.58
2019-01-04T20:20:37.177Z,84.79
2019-01-04T20:23:10.862Z,84.30
2019-01-04T20:25:58.082Z,83.70
2019-01-04T20:28:45.498Z,83.95
2019-01-04T20:31:36.476Z,84.78
2019-01-04T20:34:05.853Z,84.67
2019-01-04T20:36:53.066Z,83.62
2019-01-04T20:39:40.686Z,84.74
2019-01-04T20:42:29.993Z,84.91
2019-01-04T20:45:17.405Z,84.83
2019-01-04T20:47:57.315Z,85.11
2019-01-04T20:50:37.736Z,84.98
2019-01-04T20:53:17.850Z,84.66
2019-01-04T20:55:51.888Z,84.76
2019-01-04T20:58:31.847Z,84.67
2019-01-04T21:01:19.535Z,84.71
2019-01-04T21:03:56.257Z,84.08
2019-01-04T21:06:33.227Z,84.03
2019-01-04T21:09:07.086Z,83.87
2019-01-04T21:11:55.506Z,83.20
2019-01-04T21:14:35.664Z,83.13
2019-01-04T21:17:12.695Z,83.41
2019-01-04T21:19:59.925Z,83.05
2019-01-04T21:22:47.476Z,83.55
2019-01-04T21:25:28.208Z,83.41
2019-01-04T21:28:08.849Z,84.34
2019-01-04T21:30:42.793Z,85.31
2019-01-04T21:33:14.404Z,85.40
2019-01-04T21:35:45.580Z,84.95
2019-01-04T21:38:33.073Z,85.64
2019-01-04T21:41:10.202Z,85.15
2019-01-04T21:43:41.334Z,85.75
2019-01-04T21:46:28.892Z,84.51
2019-01-04T21:49:11.680Z,84.70
2019-01-04T21:51:43.329Z,85.11
2019-01-04T21:54:15.233Z,85.12
2019-01-04T21:56:46.356Z,84.44
2019-01-04T21:59:33.746Z,84.89
2019-01-04T22:02:19.804Z,84.31
2019-01-04T22:05:03.041Z,84.63
2019-01-04T22:07:50.682Z,85.58
2019-01-04T22:10:21.850Z,85.46
2019-01-04T22:13:04.846Z,84.75
2019-01-04T22:15:41.482Z,85.25
2019-01-04T22:18:12.623Z,85.59
2019-01-04T22:20:47.152Z,85.36
2019-01-04T22:23:20.981Z,84.70
2019-01-04T22:25:55.164Z,85.28
2019-01-04T22:28:33.134Z,85.39
2019-01-04T22:31:04.794Z,84.69
2019-01-04T22:33:38.356Z,85.37
2019-01-04T22:36:18.902Z,86.83
2019-01-04T22:39:06.136Z,86.75
2019-01-04T22:41:39.984Z,86.81
2019-01-04T22:44:13.819Z,87.30
2019-01-04T22:46:45.004Z,86.48
2019-01-04T22:49:19.069Z,87.27
2019-01-04T22:51:50.738Z,88.83
2019-01-04T22:54:24.636Z,88.70
2019-01-04T22:57:05.481Z,87.66
2019-01-04T22:59:36.643Z,87.87
2019-01-04T23:02:05.982Z,88.28
2019-01-04T23:04:35.244Z,88.37
2019-01-04T23:07:18.468Z,88.72
2019-01-04T23:09:55.520Z,88.40
2019-01-04T23:12:33.699Z,88.43
2019-01-04T23:15:04.843Z,88.60
2019-01-04T23:17:38.407Z,88.67
2019-01-04T23:20:25.727Z,88.22
2019-01-04T23:22:59.332Z,87.88
2019-01-04T23:25:46.783Z,87.38
2019-01-04T23:28:27.019Z,86.62
2019-01-04T23:31:14.291Z,86.99
2019-01-04T23:33:45.533Z,87.04
2019-01-04T23:36:31.388Z,86.33
2019-01-04T23:39:17.467Z,86.87
2019-01-04T23:42:04.835Z,87.60
2019-01-04T23:44:47.902Z,87.80
2019-01-04T23:47:28.810Z,89.14
2019-01-04T23:50:12.779Z,89.12
2019-01-04T23:52:47.484Z,89.14
2019-01-04T23:55:27.519Z,88.18
2019-01-04T23:58:10.586Z,87.05
